Time;durP1;ratioP1;P1;durP2;ratioP2;P2;SDS_P1;SDS_P2;PMS_P1;PMS_P2;Temp;Humidity;BMP_temperature;BMP_pressure;BME280_temperature;BME280_humidity;BME280_pressure;Samples;Min_cycle;Max_cycle;Signal;HPM_P1;HPM_P2
2022/11/26 00:00:48;;;;;;;22.77;9.63;;;;;;;;;;5112371;28;20074;-62
2022/11/26 00:03:14;;;;;;;25.02;9.30;;;;;;;;;;5107836;28;20036;-62
2022/11/26 00:05:42;;;;;;;25.20;9.38;;;;;;;;;;5091947;28;20035;-62
2022/11/26 00:08:20;;;;;;;21.45;9.50;;;;;;;;;;5095596;28;20067;-62
2022/11/26 00:10:48;;;;;;;23.48;9.05;;;;;;;;;;5111696;28;20482;-62
2022/11/26 00:13:16;;;;;;;23.75;8.90;;;;;;;;;;5111952;28;20035;-62
2022/11/26 00:15:41;;;;;;;31.92;9.32;;;;;;;;;;5111695;28;20053;-62
2022/11/26 00:18:08;;;;;;;22.60;9.27;;;;;;;;;;5111439;28;20047;-62
2022/11/26 00:20:34;;;;;;;24.25;9.57;;;;;;;;;;5112043;28;20043;-62
2022/11/26 00:23:02;;;;;;;27.92;9.43;;;;;;;;;;5111767;28;20447;-62
2022/11/26 00:25:32;;;;;;;21.23;9.18;;;;;;;;;;5111335;28;20039;-62
2022/11/26 00:27:59;;;;;;;24.10;8.60;;;;;;;;;;5112066;28;20035;-62
2022/11/26 00:30:26;;;;;;;20.27;9.10;;;;;;;;;;5111935;28;20389;-62
2022/11/26 00:32:52;;;;;;;25.73;9.18;;;;;;;;;;5111383;28;20070;-62
2022/11/26 00:35:19;;;;;;;25.98;9.35;;;;;;;;;;5111943;28;20039;-62
2022/11/26 00:37:56;;;;;;;26.95;10.00;;;;;;;;;;5111739;28;20580;-62
2022/11/26 00:40:24;;;;;;;24.35;9.65;;;;;;;;;;5111301;28;20051;-62
2022/11/26 00:42:51;;;;;;;22.60;9.10;;;;;;;;;;5111611;28;20047;-62
2022/11/26 00:45:21;;;;;;;24.52;8.90;;;;;;;;;;5111877;28;20042;-62
2022/11/26 00:47:48;;;;;;;23.15;8.50;;;;;;;;;;5111574;28;20411;-62
2022/11/26 00:50:15;;;;;;;22.83;8.88;;;;;;;;;;5111597;28;20043;-62
2022/11/26 00:52:41;;;;;;;27.25;9.43;;;;;;;;;;5111683;28;20036;-62
2022/11/26 00:55:17;;;;;;;23.38;9.60;;;;;;;;;;5111053;28;20741;-62
2022/11/26 00:57:43;;;;;;;24.67;9.23;;;;;;;;;;5111752;28;20046;-62
2022/11/26 01:00:13;;;;;;;22.60;9.93;;;;;;;;;;5111626;28;20035;-62
2022/11/26 01:02:39;;;;;;;24.15;9.30;;;;;;;;;;5111401;28;20047;-62
2022/11/26 01:05:07;;;;;;;21.98;9.85;;;;;;;;;;5091903;28;20032;-62
2022/11/26 01:07:33;;;;;;;26.60;9.85;;;;;;;;;;5093684;28;20055;-62
2022/11/26 01:09:59;;;;;;;25.92;9.15;;;;;;;;;;5114379;28;20027;-62
2022/11/26 01:12:25;;;;;;;28.75;10.40;;;;;;;;;;5115420;28;20039;-62
2022/11/26 01:14:51;;;;;;;29.55;10.90;;;;;;;;;;5115513;28;20039;-62
2022/11/26 01:17:17;;;;;;;32.42;10.20;;;;;;;;;;5114679;28;20535;-62
2022/11/26 01:19:43;;;;;;;23.42;9.93;;;;;;;;;;5115510;28;20127;-62
2022/11/26 01:22:22;;;;;;;26.75;9.75;;;;;;;;;;5115281;28;20530;-62
2022/11/26 01:24:48;;;;;;;24.05;8.88;;;;;;;;;;5115012;28;20056;-62
2022/11/26 01:27:15;;;;;;;26.42;9.48;;;;;;;;;;5115245;28;20042;-62
2022/11/26 01:29:41;;;;;;;26.27;9.95;;;;;;;;;;5115323;28;20085;-62
2022/11/26 01:32:07;;;;;;;24.63;10.60;;;;;;;;;;5114725;28;20046;-62
2022/11/26 01:34:33;;;;;;;24.67;9.82;;;;;;;;;;5115089;28;20512;-62
2022/11/26 01:36:59;;;;;;;24.88;9.57;;;;;;;;;;5115168;28;20047;-62
2022/11/26 01:39:25;;;;;;;27.55;10.07;;;;;;;;;;5114510;28;20031;-62
2022/11/26 01:41:51;;;;;;;26.20;9.82;;;;;;;;;;5114893;28;20046;-62
2022/11/26 01:44:28;;;;;;;21.95;10.23;;;;;;;;;;5115033;28;20039;-62
2022/11/26 01:46:54;;;;;;;26.45;10.52;;;;;;;;;;5114473;28;20035;-62
2022/11/26 01:49:26;;;;;;;30.90;9.77;;;;;;;;;;5114945;28;20128;-62
2022/11/26 01:52:14;;;;;;;27.10;9.88;;;;;;;;;;5114696;28;20034;-62
2022/11/26 01:54:41;;;;;;;25.02;10.55;;;;;;;;;;5114436;28;20035;-62
2022/11/26 01:57:15;;;;;;;24.63;9.70;;;;;;;;;;5114699;28;20118;-62
2022/11/26 01:59:43;;;;;;;28.92;10.23;;;;;;;;;;5114665;28;20070;-62
2022/11/26 02:02:09;;;;;;;20.80;9.30;;;;;;;;;;5113960;28;20031;-62
2022/11/26 02:04:54;;;;;;;21.85;9.02;;;;;;;;;;5098859;28;20040;-62
2022/11/26 02:07:20;;;;;;;27.98;9.23;;;;;;;;;;5094048;28;20039;-62
2022/11/26 02:09:46;;;;;;;25.73;10.02;;;;;;;;;;5111182;28;20111;-62
2022/11/26 02:12:12;;;;;;;22.00;9.25;;;;;;;;;;5114427;28;20474;-62
2022/11/26 02:14:39;;;;;;;22.58;9.23;;;;;;;;;;5114023;28;20126;-62
2022/11/26 02:17:08;;;;;;;25.45;9.65;;;;;;;;;;5113057;28;20048;-62
2022/11/26 02:19:53;;;;;;;29.95;10.10;;;;;;;;;;5114285;28;20054;-62
2022/11/26 02:22:38;;;;;;;26.90;9.65;;;;;;;;;;5114052;28;20044;-62
2022/11/26 02:25:04;;;;;;;26.58;9.73;;;;;;;;;;5113703;28;20078;-62
2022/11/26 02:27:49;;;;;;;28.02;8.80;;;;;;;;;;5113922;28;20040;-62
2022/11/26 02:30:16;;;;;;;21.08;8.63;;;;;;;;;;5113939;28;20028;-62
2022/11/26 02:32:42;;;;;;;22.92;8.65;;;;;;;;;;5113628;28;20096;-62
2022/11/26 02:35:20;;;;;;;22.77;8.38;;;;;;;;;;5113984;28;20110;-62
2022/11/26 02:37:57;;;;;;;22.02;7.88;;;;;;;;;;5113844;28;20563;-62
2022/11/26 02:40:23;;;;;;;23.02;8.38;;;;;;;;;;5113417;28;20719;-62
2022/11/26 02:42:49;;;;;;;18.40;7.97;;;;;;;;;;5113835;28;20050;-62
2022/11/26 02:45:18;;;;;;;16.05;7.90;;;;;;;;;;5113539;28;20035;-62
2022/11/26 02:47:45;;;;;;;17.35;7.55;;;;;;;;;;5113445;28;20046;-62
2022/11/26 02:50:15;;;;;;;14.13;6.93;;;;;;;;;;5113235;28;20036;-62
2022/11/26 02:52:41;;;;;;;21.48;7.82;;;;;;;;;;5113392;28;20128;-62
2022/11/26 02:55:08;;;;;;;15.15;7.55;;;;;;;;;;5113088;28;20040;-62
2022/11/26 02:57:37;;;;;;;14.80;6.68;;;;;;;;;;5113532;28;20039;-62
2022/11/26 03:00:04;;;;;;;15.77;7.18;;;;;;;;;;5113280;28;20130;-62
2022/11/26 03:02:36;;;;;;;15.88;7.03;;;;;;;;;;5112922;28;20044;-62
2022/11/26 03:05:02;;;;;;;17.33;7.60;;;;;;;;;;5094194;28;20092;-62
2022/11/26 03:07:30;;;;;;;18.98;8.45;;;;;;;;;;5092927;28;20032;-62
2022/11/26 03:09:57;;;;;;;19.25;7.60;;;;;;;;;;5111659;28;20482;-62
2022/11/26 03:12:23;;;;;;;15.35;6.93;;;;;;;;;;5113148;28;20051;-62
2022/11/26 03:14:49;;;;;;;16.65;7.30;;;;;;;;;;5112884;28;20040;-62
2022/11/26 03:17:15;;;;;;;18.95;8.27;;;;;;;;;;5112277;28;20052;-62
2022/11/26 03:19:41;;;;;;;27.38;8.38;;;;;;;;;;5113251;28;20048;-62
2022/11/26 03:22:08;;;;;;;19.40;8.25;;;;;;;;;;5112880;28;20043;-62
2022/11/26 03:24:35;;;;;;;18.80;8.43;;;;;;;;;;5112663;28;20476;-62
2022/11/26 03:27:01;;;;;;;19.50;8.45;;;;;;;;;;5112902;28;20592;-62
2022/11/26 03:29:27;;;;;;;24.05;8.35;;;;;;;;;;5112168;28;20516;-62
2022/11/26 03:31:53;;;;;;;18.38;7.93;;;;;;;;;;5112451;28;20035;-62
2022/11/26 03:34:19;;;;;;;18.42;7.88;;;;;;;;;;5112705;28;20042;-62
2022/11/26 03:36:45;;;;;;;21.75;8.57;;;;;;;;;;5112660;28;20034;-62
2022/11/26 03:39:11;;;;;;;26.13;8.50;;;;;;;;;;5112283;28;20375;-62
2022/11/26 03:41:37;;;;;;;14.43;8.32;;;;;;;;;;5112486;28;20119;-62
2022/11/26 03:44:03;;;;;;;16.00;7.38;;;;;;;;;;5112645;28;20043;-62
2022/11/26 03:46:29;;;;;;;21.75;8.93;;;;;;;;;;5112225;28;20043;-62
2022/11/26 03:48:55;;;;;;;17.95;7.55;;;;;;;;;;5112596;28;20028;-62
2022/11/26 03:51:21;;;;;;;21.52;8.52;;;;;;;;;;5112368;28;20032;-62
2022/11/26 03:53:47;;;;;;;20.92;8.27;;;;;;;;;;5112090;28;20043;-62
2022/11/26 03:56:14;;;;;;;24.40;8.48;;;;;;;;;;5112269;28;20040;-62
2022/11/26 03:58:40;;;;;;;24.75;8.32;;;;;;;;;;5112210;28;20047;-62
2022/11/26 04:01:07;;;;;;;18.45;7.30;;;;;;;;;;5111722;28;20054;-62
2022/11/26 04:03:33;;;;;;;18.27;7.78;;;;;;;;;;5105489;28;20390;-62
2022/11/26 04:05:59;;;;;;;25.30;9.15;;;;;;;;;;5091925;28;20553;-62
2022/11/26 04:08:25;;;;;;;21.02;8.13;;;;;;;;;;5097541;28;20116;-62
2022/11/26 04:10:51;;;;;;;15.43;8.02;;;;;;;;;;5112334;28;20466;-62
2022/11/26 04:13:17;;;;;;;18.88;8.18;;;;;;;;;;5112197;28;20042;-62
2022/11/26 04:15:43;;;;;;;23.38;8.43;;;;;;;;;;5111540;28;20048;-62
2022/11/26 04:18:09;;;;;;;18.13;7.25;;;;;;;;;;5112373;28;20046;-62
2022/11/26 04:20:35;;;;;;;24.35;9.23;;;;;;;;;;5111734;28;20046;-62
2022/11/26 04:23:01;;;;;;;22.40;8.55;;;;;;;;;;5111705;28;20618;-62
2022/11/26 04:25:27;;;;;;;21.30;8.57;;;;;;;;;;5112142;28;20060;-62
2022/11/26 04:27:53;;;;;;;19.85;9.25;;;;;;;;;;5112085;28;20065;-62
2022/11/26 04:30:20;;;;;;;25.45;9.85;;;;;;;;;;5111659;28;20035;-62
2022/11/26 04:32:46;;;;;;;19.42;8.88;;;;;;;;;;5111875;28;20480;-62
2022/11/26 04:35:12;;;;;;;23.85;9.10;;;;;;;;;;5111996;28;20039;-62
2022/11/26 04:37:38;;;;;;;24.33;10.13;;;;;;;;;;5111413;28;20620;-62
2022/11/26 04:40:04;;;;;;;22.50;9.32;;;;;;;;;;5111898;28;20055;-62
2022/11/26 04:42:30;;;;;;;18.70;8.68;;;;;;;;;;5116029;28;20040;-62
2022/11/26 04:44:56;;;;;;;24.40;9.30;;;;;;;;;;5115824;28;20047;-62
2022/11/26 04:47:22;;;;;;;17.13;9.27;;;;;;;;;;5116186;28;20039;-62
2022/11/26 04:49:48;;;;;;;21.83;8.80;;;;;;;;;;5116156;28;20084;-62
2022/11/26 04:52:14;;;;;;;19.85;9.20;;;;;;;;;;5115465;28;20123;-62
2022/11/26 04:54:40;;;;;;;23.90;10.32;;;;;;;;;;5115605;28;20050;-62
2022/11/26 04:57:06;;;;;;;22.17;10.80;;;;;;;;;;5116034;28;20088;-62
2022/11/26 04:59:32;;;;;;;23.85;10.75;;;;;;;;;;5114276;28;20047;-62
2022/11/26 05:01:58;;;;;;;21.23;11.25;;;;;;;;;;5115280;28;20047;-62
2022/11/26 05:04:25;;;;;;;23.58;10.52;;;;;;;;;;5101812;28;20035;-62
2022/11/26 05:06:51;;;;;;;22.58;10.32;;;;;;;;;;5094696;28;20036;-62
2022/11/26 05:09:17;;;;;;;18.05;10.63;;;;;;;;;;5108876;28;20042;-62
2022/11/26 05:11:43;;;;;;;20.85;9.77;;;;;;;;;;5115582;28;20097;-62
2022/11/26 05:14:09;;;;;;;20.00;10.93;;;;;;;;;;5115216;28;20047;-62
2022/11/26 05:16:35;;;;;;;20.08;10.25;;;;;;;;;;5115141;28;20048;-62
2022/11/26 05:19:01;;;;;;;19.80;10.55;;;;;;;;;;5115498;28;20050;-62
2022/11/26 05:21:27;;;;;;;23.02;10.45;;;;;;;;;;5114910;28;20043;-62
2022/11/26 05:23:53;;;;;;;22.67;10.55;;;;;;;;;;5115104;28;20046;-62
2022/11/26 05:26:19;;;;;;;21.00;10.63;;;;;;;;;;5114993;28;20032;-62
2022/11/26 05:28:45;;;;;;;19.67;11.05;;;;;;;;;;5114927;28;20046;-62
2022/11/26 05:31:11;;;;;;;21.75;10.38;;;;;;;;;;5115254;28;20036;-62
2022/11/26 05:33:37;;;;;;;18.33;10.82;;;;;;;;;;5115115;28;20126;-62
2022/11/26 05:36:04;;;;;;;23.50;11.45;;;;;;;;;;5114741;28;20059;-62
2022/11/26 05:38:30;;;;;;;22.50;10.90;;;;;;;;;;5115273;28;20035;-62
2022/11/26 05:40:56;;;;;;;26.70;11.27;;;;;;;;;;5115068;28;20071;-62
2022/11/26 05:43:22;;;;;;;21.15;11.95;;;;;;;;;;5114743;28;20182;-62
2022/11/26 05:45:48;;;;;;;23.58;11.57;;;;;;;;;;5114699;28;20031;-62
2022/11/26 05:48:14;;;;;;;24.30;11.93;;;;;;;;;;5114826;28;20080;-62
2022/11/26 05:50:40;;;;;;;19.25;11.20;;;;;;;;;;5114775;28;20475;-62
2022/11/26 05:53:06;;;;;;;23.65;12.00;;;;;;;;;;5113384;28;20039;-62
2022/11/26 05:55:32;;;;;;;20.42;10.20;;;;;;;;;;5114973;28;20416;-62
2022/11/26 05:57:58;;;;;;;24.35;11.13;;;;;;;;;;5114814;28;20044;-62
2022/11/26 06:00:24;;;;;;;16.90;10.55;;;;;;;;;;5114182;28;20127;-62
2022/11/26 06:02:50;;;;;;;22.65;11.23;;;;;;;;;;5113645;28;20047;-62
2022/11/26 06:05:16;;;;;;;20.60;10.05;;;;;;;;;;5094007;28;20040;-62
2022/11/26 06:07:42;;;;;;;21.80;10.63;;;;;;;;;;5093673;28;20036;-62
2022/11/26 06:10:09;;;;;;;21.65;10.68;;;;;;;;;;5114516;28;20036;-62
2022/11/26 06:12:35;;;;;;;16.25;9.88;;;;;;;;;;5114530;28;20040;-62
2022/11/26 06:15:01;;;;;;;20.00;10.27;;;;;;;;;;5114114;28;20396;-62
2022/11/26 06:17:27;;;;;;;20.83;10.23;;;;;;;;;;5114035;28;20116;-62
2022/11/26 06:19:53;;;;;;;23.60;11.00;;;;;;;;;;5114408;28;20073;-62
2022/11/26 06:22:19;;;;;;;17.42;10.27;;;;;;;;;;5113732;28;20035;-62
2022/11/26 06:24:45;;;;;;;22.98;10.85;;;;;;;;;;5114242;28;20096;-62
2022/11/26 06:27:11;;;;;;;23.55;11.52;;;;;;;;;;5114149;28;20031;-62
2022/11/26 06:29:37;;;;;;;19.90;10.88;;;;;;;;;;5113723;28;20044;-62
2022/11/26 06:32:03;;;;;;;18.42;10.30;;;;;;;;;;5114061;28;20092;-62
2022/11/26 06:34:29;;;;;;;17.30;10.25;;;;;;;;;;5113906;28;20473;-62
2022/11/26 06:36:55;;;;;;;18.17;10.48;;;;;;;;;;5113456;28;20038;-62
2022/11/26 06:39:21;;;;;;;24.35;10.95;;;;;;;;;;5114003;28;20047;-62
2022/11/26 06:41:47;;;;;;;18.45;10.00;;;;;;;;;;5113868;28;20040;-62
2022/11/26 06:44:13;;;;;;;21.88;10.27;;;;;;;;;;5113301;28;20043;-62
2022/11/26 06:46:39;;;;;;;24.70;10.18;;;;;;;;;;5113932;28;20036;-62
2022/11/26 06:49:06;;;;;;;21.55;10.40;;;;;;;;;;5113846;28;20170;-62
2022/11/26 06:51:32;;;;;;;23.02;11.40;;;;;;;;;;5113214;28;20038;-62
2022/11/26 06:53:58;;;;;;;25.92;11.52;;;;;;;;;;5113571;28;20443;-62
2022/11/26 06:56:24;;;;;;;21.92;10.70;;;;;;;;;;5113624;28;20458;-62
2022/11/26 06:58:53;;;;;;;22.58;11.00;;;;;;;;;;5113164;28;20492;-62
2022/11/26 07:01:22;;;;;;;25.70;12.70;;;;;;;;;;5112115;28;20222;-62
2022/11/26 07:03:48;;;;;;;35.70;13.73;;;;;;;;;;5104364;28;20177;-62
2022/11/26 07:06:16;;;;;;;21.75;12.10;;;;;;;;;;5092369;28;20047;-62
2022/11/26 07:08:42;;;;;;;20.17;11.52;;;;;;;;;;5101432;28;20039;-62
2022/11/26 07:11:09;;;;;;;19.90;10.88;;;;;;;;;;5113317;28;20031;-62
2022/11/26 07:13:35;;;;;;;23.20;11.68;;;;;;;;;;5112585;28;20048;-62
2022/11/26 07:16:02;;;;;;;26.85;12.95;;;;;;;;;;5112826;28;20063;-62
2022/11/26 07:18:28;;;;;;;21.45;11.45;;;;;;;;;;5113180;28;20044;-62
2022/11/26 07:20:54;;;;;;;23.70;11.18;;;;;;;;;;5112673;28;20031;-62
2022/11/26 07:23:20;;;;;;;25.92;12.82;;;;;;;;;;5113053;28;20054;-62
2022/11/26 07:25:46;;;;;;;23.20;11.68;;;;;;;;;;5112955;28;20066;-62
2022/11/26 07:28:12;;;;;;;24.33;12.00;;;;;;;;;;5112634;28;20035;-62
2022/11/26 07:30:38;;;;;;;28.45;13.07;;;;;;;;;;5112868;28;20092;-62
2022/11/26 07:33:04;;;;;;;25.40;13.25;;;;;;;;;;5111413;28;20039;-62
2022/11/26 07:35:31;;;;;;;27.17;13.50;;;;;;;;;;5112405;28;20105;-62
2022/11/26 07:37:58;;;;;;;27.13;12.52;;;;;;;;;;5112359;28;20054;-62
2022/11/26 07:40:24;;;;;;;30.33;13.10;;;;;;;;;;5112557;28;20047;-62
2022/11/26 07:42:50;;;;;;;29.92;12.63;;;;;;;;;;5112135;28;20051;-62
2022/11/26 07:45:16;;;;;;;28.60;13.27;;;;;;;;;;5112597;28;20084;-62
2022/11/26 07:47:42;;;;;;;25.13;12.50;;;;;;;;;;5112744;28;20089;-62
2022/11/26 07:50:08;;;;;;;22.77;12.07;;;;;;;;;;5112295;28;20177;-62
2022/11/26 07:52:34;;;;;;;27.10;11.52;;;;;;;;;;5112583;28;20043;-62
2022/11/26 07:55:00;;;;;;;26.63;13.40;;;;;;;;;;5112401;28;20531;-62
2022/11/26 07:57:27;;;;;;;27.90;13.07;;;;;;;;;;5112087;28;20132;-62
2022/11/26 07:59:53;;;;;;;26.08;11.50;;;;;;;;;;5112102;28;20048;-62
2022/11/26 08:02:19;;;;;;;24.90;11.07;;;;;;;;;;5112305;28;20047;-62
2022/11/26 08:04:45;;;;;;;27.58;11.65;;;;;;;;;;5094772;28;20032;-62
2022/11/26 08:07:11;;;;;;;27.65;12.05;;;;;;;;;;5091949;28;20055;-62
2022/11/26 08:09:37;;;;;;;35.97;14.15;;;;;;;;;;5108155;28;20410;-62
2022/11/26 08:12:03;;;;;;;28.75;13.88;;;;;;;;;;5111726;28;20127;-62
2022/11/26 08:14:29;;;;;;;27.17;13.80;;;;;;;;;;5112104;28;20035;-62
2022/11/26 08:16:56;;;;;;;28.02;13.40;;;;;;;;;;5111237;28;20460;-62
2022/11/26 08:19:22;;;;;;;29.33;13.48;;;;;;;;;;5111702;28;20040;-62
2022/11/26 08:21:48;;;;;;;25.70;13.23;;;;;;;;;;5110551;28;20378;-62
2022/11/26 08:24:15;;;;;;;25.08;12.45;;;;;;;;;;5112067;28;20445;-62
2022/11/26 08:26:42;;;;;;;29.63;13.93;;;;;;;;;;5110308;28;20386;-62
2022/11/26 08:29:08;;;;;;;24.00;13.05;;;;;;;;;;5112067;28;20435;-62
2022/11/26 08:31:34;;;;;;;32.70;13.95;;;;;;;;;;5111962;28;20047;-62
2022/11/26 08:34:01;;;;;;;23.77;12.75;;;;;;;;;;5111261;28;20461;-62
2022/11/26 08:36:28;;;;;;;30.50;15.02;;;;;;;;;;5110358;28;20041;-62
2022/11/26 08:38:54;;;;;;;22.83;12.98;;;;;;;;;;5111674;28;20054;-63
2022/11/26 08:41:20;;;;;;;36.97;15.32;;;;;;;;;;5111511;28;20487;-62
2022/11/26 08:43:47;;;;;;;30.15;13.32;;;;;;;;;;5111919;28;20080;-62
2022/11/26 08:46:13;;;;;;;31.85;12.98;;;;;;;;;;5111715;28;20532;-62
2022/11/26 08:48:39;;;;;;;25.92;12.23;;;;;;;;;;5111564;28;20024;-62
2022/11/26 08:51:07;;;;;;;33.38;13.98;;;;;;;;;;5111539;28;20050;-62
2022/11/26 08:53:33;;;;;;;29.50;14.02;;;;;;;;;;5111778;28;20043;-62
2022/11/26 08:56:04;;;;;;;31.90;14.80;;;;;;;;;;5111344;28;20112;-62
2022/11/26 08:58:32;;;;;;;28.70;14.23;;;;;;;;;;5111715;28;20035;-62
2022/11/26 09:00:58;;;;;;;35.00;14.40;;;;;;;;;;5111491;28;20047;-62
2022/11/26 09:03:24;;;;;;;37.47;14.43;;;;;;;;;;5105708;28;20455;-62
2022/11/26 09:05:50;;;;;;;38.65;14.68;;;;;;;;;;5091240;28;20036;-62
2022/11/26 09:08:16;;;;;;;35.88;15.15;;;;;;;;;;5096303;28;20553;-62
2022/11/26 09:10:42;;;;;;;36.88;16.05;;;;;;;;;;5111168;28;20375;-62
2022/11/26 09:13:08;;;;;;;40.20;15.73;;;;;;;;;;5111571;28;20036;-62
2022/11/26 09:15:36;;;;;;;30.38;14.43;;;;;;;;;;5111338;28;20042;-62
2022/11/26 09:18:02;;;;;;;37.28;15.07;;;;;;;;;;5111036;28;20055;-62
2022/11/26 09:20:28;;;;;;;28.65;15.18;;;;;;;;;;5111437;28;20051;-62
2022/11/26 09:22:54;;;;;;;37.25;14.60;;;;;;;;;;5111505;28;20040;-62
2022/11/26 09:25:20;;;;;;;34.58;14.88;;;;;;;;;;5111378;28;20572;-62
2022/11/26 09:27:46;;;;;;;36.58;14.80;;;;;;;;;;5112359;28;20123;-62
2022/11/26 09:30:14;;;;;;;34.17;14.38;;;;;;;;;;5115032;28;20035;-62
2022/11/26 09:32:40;;;;;;;35.00;15.13;;;;;;;;;;5113615;28;20040;-62
2022/11/26 09:35:06;;;;;;;28.98;15.02;;;;;;;;;;5114737;28;20490;-62
2022/11/26 09:37:32;;;;;;;36.08;16.20;;;;;;;;;;5115173;28;20043;-62
2022/11/26 09:39:58;;;;;;;33.78;15.27;;;;;;;;;;5115019;28;20047;-62
2022/11/26 09:42:24;;;;;;;36.42;17.38;;;;;;;;;;5114190;28;20535;-62
2022/11/26 09:45:07;;;;;;;37.90;15.88;;;;;;;;;;5114992;28;20036;-62
2022/11/26 09:47:45;;;;;;;32.80;15.68;;;;;;;;;;5115157;28;20068;-62
2022/11/26 09:50:18;;;;;;;40.33;17.17;;;;;;;;;;5114628;28;20051;-62
2022/11/26 09:52:50;;;;;;;40.35;16.48;;;;;;;;;;5114862;28;20066;-62
2022/11/26 09:55:37;;;;;;;30.75;15.68;;;;;;;;;;5114208;28;20047;-62
2022/11/26 09:58:23;;;;;;;35.60;17.27;;;;;;;;;;5114936;28;20271;-62
2022/11/26 10:00:53;;;;;;;32.00;15.63;;;;;;;;;;5114457;27;20040;-62
2022/11/26 10:03:20;;;;;;;38.28;17.98;;;;;;;;;;5109634;28;20115;-62
2022/11/26 10:05:58;;;;;;;36.10;16.83;;;;;;;;;;5094213;28;20032;-62
2022/11/26 10:08:23;;;;;;;43.10;18.27;;;;;;;;;;5100199;28;20435;-62
2022/11/26 10:10:54;;;;;;;37.60;16.92;;;;;;;;;;5113890;28;20078;-62
2022/11/26 10:13:27;;;;;;;39.60;18.00;;;;;;;;;;5114160;28;20048;-62
2022/11/26 10:16:06;;;;;;;43.50;18.48;;;;;;;;;;5114100;28;20047;-62
2022/11/26 10:18:40;;;;;;;42.58;17.85;;;;;;;;;;5114056;28;20047;-62
2022/11/26 10:21:06;;;;;;;36.33;18.42;;;;;;;;;;5114236;28;20114;-62
2022/11/26 10:23:32;;;;;;;41.10;18.05;;;;;;;;;;5114355;28;20118;-62
2022/11/26 10:26:05;;;;;;;41.13;19.15;;;;;;;;;;5113803;28;20096;-62
2022/11/26 10:28:50;;;;;;;43.53;19.65;;;;;;;;;;5114561;28;20043;-62
2022/11/26 10:31:20;;;;;;;34.65;17.85;;;;;;;;;;5113852;28;20090;-62
2022/11/26 10:33:49;;;;;;;40.50;19.95;;;;;;;;;;5113724;28;20047;-62
2022/11/26 10:36:20;;;;;;;41.85;19.25;;;;;;;;;;5112528;28;20039;-62
2022/11/26 10:38:46;;;;;;;43.70;21.25;;;;;;;;;;5113256;28;20415;-62
2022/11/26 10:41:12;;;;;;;45.95;20.92;;;;;;;;;;5113430;28;20047;-62
2022/11/26 10:43:38;;;;;;;41.17;21.02;;;;;;;;;;5101727;28;20042;-62
2022/11/26 10:46:04;;;;;;;42.38;21.63;;;;;;;;;;5110723;28;20122;-62
2022/11/26 10:48:30;;;;;;;40.90;22.60;;;;;;;;;;5111538;28;20411;-62
2022/11/26 10:51:15;;;;;;;49.45;22.50;;;;;;;;;;5112134;28;20032;-62
2022/11/26 10:53:51;;;;;;;44.35;21.00;;;;;;;;;;5112477;28;20039;-62
2022/11/26 10:56:19;;;;;;;43.30;22.02;;;;;;;;;;5112418;28;20040;-62
2022/11/26 10:58:45;;;;;;;58.33;23.15;;;;;;;;;;5112520;28;20039;-62
2022/11/26 11:01:14;;;;;;;46.95;22.90;;;;;;;;;;5112365;28;20039;-63
2022/11/26 11:03:48;;;;;;;48.00;25.50;;;;;;;;;;5104273;28;20042;-63
2022/11/26 11:06:19;;;;;;;62.15;24.85;;;;;;;;;;5110778;28;20051;-63
2022/11/26 11:08:46;;;;;;;49.30;25.33;;;;;;;;;;5112402;28;20039;-62
2022/11/26 11:11:25;;;;;;;45.78;23.83;;;;;;;;;;5111359;28;20032;-63
2022/11/26 11:13:52;;;;;;;55.95;25.67;;;;;;;;;;5111795;28;20039;-62
2022/11/26 11:16:24;;;;;;;61.28;26.48;;;;;;;;;;5111482;28;20510;-64
2022/11/26 11:18:53;;;;;;;57.05;26.02;;;;;;;;;;5112087;28;20043;-63
2022/11/26 11:21:20;;;;;;;53.72;26.63;;;;;;;;;;5111901;28;20081;-63
2022/11/26 11:23:47;;;;;;;54.28;25.77;;;;;;;;;;5111630;28;20040;-63
2022/11/26 11:26:20;;;;;;;61.65;27.08;;;;;;;;;;5111649;28;20123;-63
2022/11/26 11:28:48;;;;;;;65.53;27.75;;;;;;;;;;5108462;28;20042;-63
2022/11/26 11:31:24;;;;;;;57.58;27.05;;;;;;;;;;5103708;28;20039;-63
2022/11/26 11:33:51;;;;;;;58.13;26.85;;;;;;;;;;5109010;28;20043;-63
2022/11/26 11:36:19;;;;;;;55.42;26.08;;;;;;;;;;5105213;28;20143;-63
2022/11/26 11:38:50;;;;;;;63.17;27.05;;;;;;;;;;5111194;28;20047;-63
2022/11/26 11:41:31;;;;;;;57.50;26.75;;;;;;;;;;5111688;28;20443;-63
2022/11/26 11:44:12;;;;;;;62.40;25.40;;;;;;;;;;5111287;28;20042;-63
2022/11/26 11:47:01;;;;;;;58.75;24.25;;;;;;;;;;5110716;28;20042;-63
2022/11/26 11:49:48;;;;;;;60.60;24.38;;;;;;;;;;5073085;28;20122;-63
2022/11/26 11:52:17;;;;;;;49.30;23.58;;;;;;;;;;5110832;28;20043;-63
2022/11/26 11:54:55;;;;;;;54.20;23.15;;;;;;;;;;5110565;28;20039;-63
2022/11/26 11:57:31;;;;;;;57.97;24.08;;;;;;;;;;5100923;28;20062;-63
2022/11/26 12:00:12;;;;;;;55.22;23.88;;;;;;;;;;5111397;28;20101;-63
2022/11/26 12:02:47;;;;;;;54.78;24.23;;;;;;;;;;5111115;28;20054;-63
2022/11/26 12:05:13;;;;;;;51.05;23.33;;;;;;;;;;5098860;28;20074;-63
2022/11/26 12:07:41;;;;;;;52.20;22.85;;;;;;;;;;5111447;28;20491;-63
2022/11/26 12:10:15;;;;;;;55.83;22.42;;;;;;;;;;5105957;28;20467;-63
2022/11/26 12:12:43;;;;;;;47.58;22.15;;;;;;;;;;5111141;28;20118;-63
2022/11/26 12:15:09;;;;;;;55.90;22.17;;;;;;;;;;5110104;28;20052;-63
2022/11/26 12:18:02;;;;;;;50.50;22.25;;;;;;;;;;5110527;28;20047;-63
2022/11/26 12:20:30;;;;;;;51.50;21.60;;;;;;;;;;5079577;28;20059;-63
2022/11/26 12:22:57;;;;;;;54.00;20.83;;;;;;;;;;5110940;28;20044;-63
2022/11/26 12:25:28;;;;;;;40.47;19.05;;;;;;;;;;5110007;28;20050;-62
2022/11/26 12:27:58;;;;;;;47.03;19.38;;;;;;;;;;5110890;28;20039;-63
2022/11/26 12:30:29;;;;;;;58.28;21.58;;;;;;;;;;5110875;28;20072;-63
2022/11/26 12:33:00;;;;;;;54.28;21.45;;;;;;;;;;5111174;28;20075;-63
2022/11/26 12:35:32;;;;;;;46.60;19.67;;;;;;;;;;5110003;28;20047;-63
2022/11/26 12:38:18;;;;;;;45.83;19.27;;;;;;;;;;5110303;28;20050;-62
2022/11/26 12:40:47;;;;;;;45.03;18.75;;;;;;;;;;5110565;28;20353;-63
2022/11/26 12:43:17;;;;;;;52.97;20.42;;;;;;;;;;5110925;28;20492;-62
2022/11/26 12:45:52;;;;;;;43.10;16.80;;;;;;;;;;5109474;28;20049;-63
2022/11/26 12:48:21;;;;;;;45.63;18.27;;;;;;;;;;5110909;28;20575;-62
2022/11/26 12:50:54;;;;;;;42.08;17.67;;;;;;;;;;5110825;28;20111;-63
2022/11/26 12:53:30;;;;;;;42.35;17.58;;;;;;;;;;5109055;28;20051;-62
2022/11/26 12:56:01;;;;;;;45.85;16.30;;;;;;;;;;5110251;28;20039;-62
2022/11/26 12:58:30;;;;;;;38.42;16.52;;;;;;;;;;5110229;28;20079;-62
2022/11/26 13:00:57;;;;;;;45.97;17.48;;;;;;;;;;5110094;28;20606;-62
2022/11/26 13:03:32;;;;;;;45.38;17.30;;;;;;;;;;5114732;28;20054;-62
2022/11/26 13:06:07;;;;;;;41.90;16.55;;;;;;;;;;5114492;28;20040;-63
2022/11/26 13:08:36;;;;;;;44.00;18.40;;;;;;;;;;5114048;28;20045;-62
2022/11/26 13:11:21;;;;;;;52.85;17.67;;;;;;;;;;5114702;28;20040;-62
2022/11/26 13:13:58;;;;;;;46.90;18.13;;;;;;;;;;5114447;28;20051;-62
2022/11/26 13:16:38;;;;;;;41.60;17.17;;;;;;;;;;5113747;28;20400;-62
2022/11/26 13:19:23;;;;;;;40.92;17.33;;;;;;;;;;5108254;28;20047;-62
2022/11/26 13:21:52;;;;;;;40.17;17.00;;;;;;;;;;5114364;28;20114;-62
2022/11/26 13:24:24;;;;;;;45.50;16.70;;;;;;;;;;5113846;28;20046;-62
2022/11/26 13:27:09;;;;;;;40.45;16.38;;;;;;;;;;5114135;28;20035;-62
2022/11/26 13:29:37;;;;;;;41.50;16.92;;;;;;;;;;5102393;28;20056;-62
2022/11/26 13:32:03;;;;;;;36.90;14.95;;;;;;;;;;5114285;28;20088;-62
2022/11/26 13:34:29;;;;;;;34.58;15.60;;;;;;;;;;5114123;28;20406;-62
2022/11/26 13:37:11;;;;;;;53.72;28.25;;;;;;;;;;5113537;28;20446;-62
2022/11/26 13:40:09;;;;;;;44.88;18.20;;;;;;;;;;5113870;28;20040;-62
2022/11/26 13:42:51;;;;;;;42.55;18.27;;;;;;;;;;5068643;27;20056;-62
2022/11/26 13:45:33;;;;;;;48.15;21.02;;;;;;;;;;5113525;28;20104;-62
2022/11/26 13:48:13;;;;;;;44.05;20.27;;;;;;;;;;5113397;28;20035;-62
2022/11/26 13:50:49;;;;;;;37.45;16.70;;;;;;;;;;5114045;28;20031;-62
2022/11/26 13:53:18;;;;;;;91.03;48.45;;;;;;;;;;5113225;28;20051;-62
2022/11/26 13:55:50;;;;;;;51.13;22.70;;;;;;;;;;5113218;27;20470;-62
2022/11/26 13:58:21;;;;;;;52.67;28.67;;;;;;;;;;5113015;28;20036;-62
2022/11/26 14:00:48;;;;;;;37.92;17.92;;;;;;;;;;5113100;28;20281;-62
2022/11/26 14:03:33;;;;;;;36.15;18.00;;;;;;;;;;5112995;28;20865;-62
2022/11/26 14:05:59;;;;;;;45.13;19.90;;;;;;;;;;5103845;28;20031;-62
2022/11/26 14:08:40;;;;;;;52.50;22.38;;;;;;;;;;5112997;28;20045;-62
2022/11/26 14:11:07;;;;;;;50.97;24.35;;;;;;;;;;5113358;27;20050;-62
2022/11/26 14:13:33;;;;;;;43.67;18.35;;;;;;;;;;5112420;28;20043;-62
2022/11/26 14:16:01;;;;;;;37.13;17.77;;;;;;;;;;5112313;28;20094;-62
2022/11/26 14:18:47;;;;;;;66.50;32.33;;;;;;;;;;5112855;28;20044;-63
2022/11/26 14:21:13;;;;;;;55.30;26.05;;;;;;;;;;5113040;28;20051;-62
2022/11/26 14:23:48;;;;;;;59.60;28.08;;;;;;;;;;5112398;28;20040;-62
2022/11/26 14:26:33;;;;;;;47.20;22.80;;;;;;;;;;5108055;28;20036;-62
2022/11/26 14:29:08;;;;;;;41.45;21.63;;;;;;;;;;5112532;28;20498;-62
2022/11/26 14:31:55;;;;;;;50.67;22.77;;;;;;;;;;5112931;28;20490;-62